Terminal Aerodrome Forecast
Issued by NWS Paducah, KY

Home | Current Version | Previous Version | Graphics & Text | Print | Product List | Glossary On
Versions: 1 2 3 4 5 6 7 8 9 10 11 12 13
000
FTUS43 KPAH 202300 RRA
TAFPAH
TAF
KPAH 202340Z 2100/2124 22004KT P6SM SCT250
     FM210800 25006KT P6SM VCSH BKN050 OVC100
     FM211300 29008KT P6SM FEW015 SCT090
     FM211600 33010G16KT P6SM SKC=

USA.gov is the U.S. government's official web portal to all federal, state and local government web resources and services.